sensor_id;sensor_type;location;lat;lon;timestamp;temperature;humidity
6841;DHT22;3458;53.678;14.080;2023-07-28T00:02:04;17.90;99.90
6841;DHT22;3458;53.678;14.080;2023-07-28T00:04:29;17.90;99.90
6841;DHT22;3458;53.678;14.080;2023-07-28T00:06:55;17.90;99.90
6841;DHT22;3458;53.678;14.080;2023-07-28T00:09:20;17.90;99.90
6841;DHT22;3458;53.678;14.080;2023-07-28T00:11:48;17.90;99.90
6841;DHT22;3458;53.678;14.080;2023-07-28T00:14:13;17.90;99.90
6841;DHT22;3458;53.678;14.080;2023-07-28T00:16:39;17.90;99.90
6841;DHT22;3458;53.678;14.080;2023-07-28T00:19:05;17.90;99.90
6841;DHT22;3458;53.678;14.080;2023-07-28T00:21:31;17.90;99.90
6841;DHT22;3458;53.678;14.080;2023-07-28T00:23:56;17.90;99.90
6841;DHT22;3458;53.678;14.080;2023-07-28T00:26:22;17.90;99.90
6841;DHT22;3458;53.678;14.080;2023-07-28T00:28:47;17.90;99.90
6841;DHT22;3458;53.678;14.080;2023-07-28T00:31:13;17.90;99.90
6841;DHT22;3458;53.678;14.080;2023-07-28T00:33:38;17.90;99.90
6841;DHT22;3458;53.678;14.080;2023-07-28T00:36:04;17.90;99.90
6841;DHT22;3458;53.678;14.080;2023-07-28T00:38:29;17.90;99.90
6841;DHT22;3458;53.678;14.080;2023-07-28T00:40:55;17.90;99.90
6841;DHT22;3458;53.678;14.080;2023-07-28T00:43:21;17.90;99.90
6841;DHT22;3458;53.678;14.080;2023-07-28T00:45:46;17.90;99.90
6841;DHT22;3458;53.678;14.080;2023-07-28T00:48:13;17.90;99.90
6841;DHT22;3458;53.678;14.080;2023-07-28T00:50:41;17.80;99.90
6841;DHT22;3458;53.678;14.080;2023-07-28T00:53:07;17.80;99.90
6841;DHT22;3458;53.678;14.080;2023-07-28T00:55:33;17.90;99.90
6841;DHT22;3458;53.678;14.080;2023-07-28T00:57:59;17.80;99.90
6841;DHT22;3458;53.678;14.080;2023-07-28T01:00:24;17.90;99.90
6841;DHT22;3458;53.678;14.080;2023-07-28T01:02:49;17.90;99.90
6841;DHT22;3458;53.678;14.080;2023-07-28T01:05:15;17.80;99.90
6841;DHT22;3458;53.678;14.080;2023-07-28T01:07:51;17.80;99.90
6841;DHT22;3458;53.678;14.080;2023-07-28T01:10:28;17.90;99.90
6841;DHT22;3458;53.678;14.080;2023-07-28T01:12:54;17.90;99.90
6841;DHT22;3458;53.678;14.080;2023-07-28T01:15:20;17.90;99.90
6841;DHT22;3458;53.678;14.080;2023-07-28T01:17:46;17.90;99.90
6841;DHT22;3458;53.678;14.080;2023-07-28T01:20:11;17.90;99.90
6841;DHT22;3458;53.678;14.080;2023-07-28T01:26:12;17.90;99.90
6841;DHT22;3458;53.678;14.080;2023-07-28T01:28:40;17.90;99.90
6841;DHT22;3458;53.678;14.080;2023-07-28T01:31:07;17.90;99.90
6841;DHT22;3458;53.678;14.080;2023-07-28T01:33:33;17.80;99.90
6841;DHT22;3458;53.678;14.080;2023-07-28T01:35:59;17.80;99.90
6841;DHT22;3458;53.678;14.080;2023-07-28T01:38:29;17.80;99.90
6841;DHT22;3458;53.678;14.080;2023-07-28T01:40:55;17.80;99.90
6841;DHT22;3458;53.678;14.080;2023-07-28T01:43:20;17.80;99.90
6841;DHT22;3458;53.678;14.080;2023-07-28T01:45:46;17.90;99.90
6841;DHT22;3458;53.678;14.080;2023-07-28T01:48:11;17.80;99.90
6841;DHT22;3458;53.678;14.080;2023-07-28T01:50:37;17.80;99.90
6841;DHT22;3458;53.678;14.080;2023-07-28T01:53:05;17.80;99.90
6841;DHT22;3458;53.678;14.080;2023-07-28T01:55:30;17.80;99.90
6841;DHT22;3458;53.678;14.080;2023-07-28T01:57:58;17.80;99.90
6841;DHT22;3458;53.678;14.080;2023-07-28T02:00:24;17.80;99.90
6841;DHT22;3458;53.678;14.080;2023-07-28T02:02:50;17.80;99.90
6841;DHT22;3458;53.678;14.080;2023-07-28T02:05:16;17.80;99.90
6841;DHT22;3458;53.678;14.080;2023-07-28T02:07:42;17.80;99.90
6841;DHT22;3458;53.678;14.080;2023-07-28T02:10:08;17.80;99.90
6841;DHT22;3458;53.678;14.080;2023-07-28T02:12:33;17.80;99.90
6841;DHT22;3458;53.678;14.080;2023-07-28T02:14:59;17.80;99.90
6841;DHT22;3458;53.678;14.080;2023-07-28T02:17:25;17.80;99.90
6841;DHT22;3458;53.678;14.080;2023-07-28T02:19:50;17.80;99.90
6841;DHT22;3458;53.678;14.080;2023-07-28T02:22:16;17.80;99.90
6841;DHT22;3458;53.678;14.080;2023-07-28T02:24:41;17.80;99.90
6841;DHT22;3458;53.678;14.080;2023-07-28T02:27:07;17.80;99.90
6841;DHT22;3458;53.678;14.080;2023-07-28T02:29:32;17.80;99.90
6841;DHT22;3458;53.678;14.080;2023-07-28T02:31:58;17.90;99.90
6841;DHT22;3458;53.678;14.080;2023-07-28T02:34:23;17.90;99.90
6841;DHT22;3458;53.678;14.080;2023-07-28T02:36:49;17.80;99.90
6841;DHT22;3458;53.678;14.080;2023-07-28T02:39:14;17.80;99.90
6841;DHT22;3458;53.678;14.080;2023-07-28T02:41:40;17.80;99.90
6841;DHT22;3458;53.678;14.080;2023-07-28T02:44:05;17.80;99.90
6841;DHT22;3458;53.678;14.080;2023-07-28T02:46:31;17.80;99.90
6841;DHT22;3458;53.678;14.080;2023-07-28T02:48:56;17.90;99.90
6841;DHT22;3458;53.678;14.080;2023-07-28T02:51:22;17.80;99.90
6841;DHT22;3458;53.678;14.080;2023-07-28T02:53:47;17.80;99.90
6841;DHT22;3458;53.678;14.080;2023-07-28T02:56:13;17.80;99.90
6841;DHT22;3458;53.678;14.080;2023-07-28T02:58:38;17.80;99.90
6841;DHT22;3458;53.678;14.080;2023-07-28T03:01:04;17.90;99.90
6841;DHT22;3458;53.678;14.080;2023-07-28T03:03:29;17.90;99.90
6841;DHT22;3458;53.678;14.080;2023-07-28T03:05:55;17.90;99.90
6841;DHT22;3458;53.678;14.080;2023-07-28T03:08:20;17.80;99.90
6841;DHT22;3458;53.678;14.080;2023-07-28T03:10:46;17.80;99.90
6841;DHT22;3458;53.678;14.080;2023-07-28T03:13:11;17.80;99.90
6841;DHT22;3458;53.678;14.080;2023-07-28T03:15:37;17.80;99.90
6841;DHT22;3458;53.678;14.080;2023-07-28T03:18:02;17.80;99.90
6841;DHT22;3458;53.678;14.080;2023-07-28T03:20:29;17.80;99.90
6841;DHT22;3458;53.678;14.080;2023-07-28T03:22:54;17.80;99.90
6841;DHT22;3458;53.678;14.080;2023-07-28T03:25:20;17.80;99.90
6841;DHT22;3458;53.678;14.080;2023-07-28T03:27:45;17.80;99.90
6841;DHT22;3458;53.678;14.080;2023-07-28T03:30:11;17.80;99.90
6841;DHT22;3458;53.678;14.080;2023-07-28T03:32:36;17.80;99.90
6841;DHT22;3458;53.678;14.080;2023-07-28T03:35:03;17.80;99.90
6841;DHT22;3458;53.678;14.080;2023-07-28T03:37:31;17.80;99.90
6841;DHT22;3458;53.678;14.080;2023-07-28T03:39:56;17.80;99.90
6841;DHT22;3458;53.678;14.080;2023-07-28T03:42:22;17.80;99.90
6841;DHT22;3458;53.678;14.080;2023-07-28T03:44:47;17.80;99.90
6841;DHT22;3458;53.678;14.080;2023-07-28T03:47:12;17.80;99.90
6841;DHT22;3458;53.678;14.080;2023-07-28T03:49:38;17.80;99.90
6841;DHT22;3458;53.678;14.080;2023-07-28T03:52:04;17.80;99.90
6841;DHT22;3458;53.678;14.080;2023-07-28T03:54:29;17.80;99.90
6841;DHT22;3458;53.678;14.080;2023-07-28T03:56:55;17.80;99.90
6841;DHT22;3458;53.678;14.080;2023-07-28T03:59:20;17.80;99.90
6841;DHT22;3458;53.678;14.080;2023-07-28T04:01:46;17.80;99.90
6841;DHT22;3458;53.678;14.080;2023-07-28T04:04:11;17.80;99.90
6841;DHT22;3458;53.678;14.080;2023-07-28T04:06:45;17.80;99.90
6841;DHT22;3458;53.678;14.080;2023-07-28T04:09:12;17.80;99.90
6841;DHT22;3458;53.678;14.080;2023-07-28T04:11:38;17.80;99.90
6841;DHT22;3458;53.678;14.080;2023-07-28T04:14:03;17.80;99.90
6841;DHT22;3458;53.678;14.080;2023-07-28T04:16:29;17.80;99.90
6841;DHT22;3458;53.678;14.080;2023-07-28T04:18:55;17.80;99.90
6841;DHT22;3458;53.678;14.080;2023-07-28T04:21:20;17.80;99.90
6841;DHT22;3458;53.678;14.080;2023-07-28T04:23:46;17.80;99.90
6841;DHT22;3458;53.678;14.080;2023-07-28T04:26:12;17.80;99.90
6841;DHT22;3458;53.678;14.080;2023-07-28T04:28:37;17.80;99.90
6841;DHT22;3458;53.678;14.080;2023-07-28T04:31:03;17.80;99.90
6841;DHT22;3458;53.678;14.080;2023-07-28T04:33:28;17.80;99.90
6841;DHT22;3458;53.678;14.080;2023-07-28T04:35:54;17.80;99.90
6841;DHT22;3458;53.678;14.080;2023-07-28T04:38:19;17.80;99.90
6841;DHT22;3458;53.678;14.080;2023-07-28T04:40:45;17.80;99.90
6841;DHT22;3458;53.678;14.080;2023-07-28T04:43:11;17.80;99.90
6841;DHT22;3458;53.678;14.080;2023-07-28T04:45:36;17.80;99.90
6841;DHT22;3458;53.678;14.080;2023-07-28T04:48:02;17.80;99.90
6841;DHT22;3458;53.678;14.080;2023-07-28T04:50:28;17.80;99.90
6841;DHT22;3458;53.678;14.080;2023-07-28T04:52:54;17.80;99.90
6841;DHT22;3458;53.678;14.080;2023-07-28T04:55:19;17.80;99.90
6841;DHT22;3458;53.678;14.080;2023-07-28T04:57:45;17.80;99.90
6841;DHT22;3458;53.678;14.080;2023-07-28T05:00:11;17.80;99.90
6841;DHT22;3458;53.678;14.080;2023-07-28T05:02:37;17.90;99.90
6841;DHT22;3458;53.678;14.080;2023-07-28T05:05:03;17.90;99.90
6841;DHT22;3458;53.678;14.080;2023-07-28T05:07:28;17.90;99.90
6841;DHT22;3458;53.678;14.080;2023-07-28T05:09:54;17.90;99.90
6841;DHT22;3458;53.678;14.080;2023-07-28T05:12:19;17.90;99.90
6841;DHT22;3458;53.678;14.080;2023-07-28T05:14:46;17.90;99.90
6841;DHT22;3458;53.678;14.080;2023-07-28T05:17:11;17.90;99.90
6841;DHT22;3458;53.678;14.080;2023-07-28T05:19:37;17.90;99.90
6841;DHT22;3458;53.678;14.080;2023-07-28T05:22:02;17.90;99.90
6841;DHT22;3458;53.678;14.080;2023-07-28T05:24:28;17.90;99.90
6841;DHT22;3458;53.678;14.080;2023-07-28T05:26:53;17.90;99.90
6841;DHT22;3458;53.678;14.080;2023-07-28T05:29:19;17.90;99.90
6841;DHT22;3458;53.678;14.080;2023-07-28T05:31:45;17.90;99.90
6841;DHT22;3458;53.678;14.080;2023-07-28T05:34:10;17.90;99.90
6841;DHT22;3458;53.678;14.080;2023-07-28T05:36:40;17.80;99.90
6841;DHT22;3458;53.678;14.080;2023-07-28T05:39:05;17.80;99.90
6841;DHT22;3458;53.678;14.080;2023-07-28T05:41:31;17.80;99.90
6841;DHT22;3458;53.678;14.080;2023-07-28T05:43:57;17.80;99.90
6841;DHT22;3458;53.678;14.080;2023-07-28T05:46:23;17.80;99.90
6841;DHT22;3458;53.678;14.080;2023-07-28T05:48:48;17.80;99.90
6841;DHT22;3458;53.678;14.080;2023-07-28T05:51:14;17.90;99.90
6841;DHT22;3458;53.678;14.080;2023-07-28T05:53:39;17.80;99.90
6841;DHT22;3458;53.678;14.080;2023-07-28T05:56:05;17.80;99.90
6841;DHT22;3458;53.678;14.080;2023-07-28T05:58:30;17.80;99.90
6841;DHT22;3458;53.678;14.080;2023-07-28T06:00:56;17.90;99.90
6841;DHT22;3458;53.678;14.080;2023-07-28T06:03:21;17.90;99.90
6841;DHT22;3458;53.678;14.080;2023-07-28T06:05:47;18.00;99.90
6841;DHT22;3458;53.678;14.080;2023-07-28T06:08:12;18.10;99.90
6841;DHT22;3458;53.678;14.080;2023-07-28T06:10:39;18.10;99.90
6841;DHT22;3458;53.678;14.080;2023-07-28T06:13:04;18.20;99.90
6841;DHT22;3458;53.678;14.080;2023-07-28T06:15:30;18.20;99.90
6841;DHT22;3458;53.678;14.080;2023-07-28T06:17:55;18.20;99.90
6841;DHT22;3458;53.678;14.080;2023-07-28T06:20:21;18.20;99.90
6841;DHT22;3458;53.678;14.080;2023-07-28T06:22:46;18.20;99.90
6841;DHT22;3458;53.678;14.080;2023-07-28T06:25:12;18.30;99.90
6841;DHT22;3458;53.678;14.080;2023-07-28T06:27:37;18.30;99.90
6841;DHT22;3458;53.678;14.080;2023-07-28T06:30:04;18.20;99.90
6841;DHT22;3458;53.678;14.080;2023-07-28T06:32:30;18.20;99.90
6841;DHT22;3458;53.678;14.080;2023-07-28T06:34:56;18.30;99.90
6841;DHT22;3458;53.678;14.080;2023-07-28T06:37:22;18.30;99.90
6841;DHT22;3458;53.678;14.080;2023-07-28T06:39:48;18.40;99.90
6841;DHT22;3458;53.678;14.080;2023-07-28T06:42:14;18.40;99.90
6841;DHT22;3458;53.678;14.080;2023-07-28T06:44:41;18.50;99.90
6841;DHT22;3458;53.678;14.080;2023-07-28T06:47:07;18.60;99.90
6841;DHT22;3458;53.678;14.080;2023-07-28T06:49:32;18.60;99.90
6841;DHT22;3458;53.678;14.080;2023-07-28T06:51:58;18.60;99.90
6841;DHT22;3458;53.678;14.080;2023-07-28T06:54:23;18.60;99.90
6841;DHT22;3458;53.678;14.080;2023-07-28T06:56:50;18.60;99.90
6841;DHT22;3458;53.678;14.080;2023-07-28T06:59:15;18.50;99.90
6841;DHT22;3458;53.678;14.080;2023-07-28T07:01:41;18.50;99.90
6841;DHT22;3458;53.678;14.080;2023-07-28T07:04:06;18.50;99.90
6841;DHT22;3458;53.678;14.080;2023-07-28T07:06:32;18.50;99.90
6841;DHT22;3458;53.678;14.080;2023-07-28T07:08:57;18.60;99.90
6841;DHT22;3458;53.678;14.080;2023-07-28T07:11:23;18.60;99.90
6841;DHT22;3458;53.678;14.080;2023-07-28T07:13:48;18.70;99.90
6841;DHT22;3458;53.678;14.080;2023-07-28T07:16:17;18.70;99.90
6841;DHT22;3458;53.678;14.080;2023-07-28T07:18:43;18.80;99.90
6841;DHT22;3458;53.678;14.080;2023-07-28T07:21:09;18.80;99.90
6841;DHT22;3458;53.678;14.080;2023-07-28T07:23:35;18.80;99.90
6841;DHT22;3458;53.678;14.080;2023-07-28T07:26:01;18.80;99.90
6841;DHT22;3458;53.678;14.080;2023-07-28T07:28:26;18.90;99.90
6841;DHT22;3458;53.678;14.080;2023-07-28T07:30:54;18.90;99.90
6841;DHT22;3458;53.678;14.080;2023-07-28T07:33:19;18.80;99.90
6841;DHT22;3458;53.678;14.080;2023-07-28T07:35:45;18.90;99.90
6841;DHT22;3458;53.678;14.080;2023-07-28T07:38:10;18.90;99.90
6841;DHT22;3458;53.678;14.080;2023-07-28T07:40:36;19.00;99.90
6841;DHT22;3458;53.678;14.080;2023-07-28T07:43:02;19.00;99.90
6841;DHT22;3458;53.678;14.080;2023-07-28T07:45:31;18.90;99.90
6841;DHT22;3458;53.678;14.080;2023-07-28T07:47:58;18.90;99.90
6841;DHT22;3458;53.678;14.080;2023-07-28T07:50:24;18.90;99.90
6841;DHT22;3458;53.678;14.080;2023-07-28T07:52:50;18.90;99.90
6841;DHT22;3458;53.678;14.080;2023-07-28T07:55:15;18.80;99.90
6841;DHT22;3458;53.678;14.080;2023-07-28T07:57:41;18.80;99.90
6841;DHT22;3458;53.678;14.080;2023-07-28T08:00:07;18.90;99.90
6841;DHT22;3458;53.678;14.080;2023-07-28T08:02:34;18.90;99.90
6841;DHT22;3458;53.678;14.080;2023-07-28T08:04:59;18.90;99.90
6841;DHT22;3458;53.678;14.080;2023-07-28T08:07:25;18.80;99.90
6841;DHT22;3458;53.678;14.080;2023-07-28T08:09:51;18.80;99.90
6841;DHT22;3458;53.678;14.080;2023-07-28T08:12:16;18.80;99.90
6841;DHT22;3458;53.678;14.080;2023-07-28T08:14:42;18.80;99.90
6841;DHT22;3458;53.678;14.080;2023-07-28T08:17:09;18.70;99.90
6841;DHT22;3458;53.678;14.080;2023-07-28T08:19:35;18.80;99.90
6841;DHT22;3458;53.678;14.080;2023-07-28T08:22:01;18.80;99.90
6841;DHT22;3458;53.678;14.080;2023-07-28T08:24:29;18.90;99.90
6841;DHT22;3458;53.678;14.080;2023-07-28T08:26:54;18.90;99.90
6841;DHT22;3458;53.678;14.080;2023-07-28T08:29:20;19.00;99.90
6841;DHT22;3458;53.678;14.080;2023-07-28T08:31:45;19.00;99.90
6841;DHT22;3458;53.678;14.080;2023-07-28T08:34:11;19.10;99.90
6841;DHT22;3458;53.678;14.080;2023-07-28T08:36:36;19.10;99.90
6841;DHT22;3458;53.678;14.080;2023-07-28T08:39:02;19.10;99.90
6841;DHT22;3458;53.678;14.080;2023-07-28T08:41:27;19.10;99.90
6841;DHT22;3458;53.678;14.080;2023-07-28T08:43:53;19.10;99.90
6841;DHT22;3458;53.678;14.080;2023-07-28T08:46:20;19.00;99.90
6841;DHT22;3458;53.678;14.080;2023-07-28T08:48:45;19.00;99.90
6841;DHT22;3458;53.678;14.080;2023-07-28T08:51:12;19.00;99.90
6841;DHT22;3458;53.678;14.080;2023-07-28T08:53:38;19.10;99.90
6841;DHT22;3458;53.678;14.080;2023-07-28T08:56:05;19.20;99.90
6841;DHT22;3458;53.678;14.080;2023-07-28T08:58:30;19.20;99.90
6841;DHT22;3458;53.678;14.080;2023-07-28T09:00:56;19.20;99.90
6841;DHT22;3458;53.678;14.080;2023-07-28T09:03:26;19.30;99.90
6841;DHT22;3458;53.678;14.080;2023-07-28T09:05:59;19.30;99.90
6841;DHT22;3458;53.678;14.080;2023-07-28T09:08:25;19.30;99.90
6841;DHT22;3458;53.678;14.080;2023-07-28T09:10:50;19.30;99.90
6841;DHT22;3458;53.678;14.080;2023-07-28T09:13:17;19.40;99.90
6841;DHT22;3458;53.678;14.080;2023-07-28T09:15:44;19.40;99.90
6841;DHT22;3458;53.678;14.080;2023-07-28T09:18:17;19.50;99.90
6841;DHT22;3458;53.678;14.080;2023-07-28T09:20:42;19.50;99.90
6841;DHT22;3458;53.678;14.080;2023-07-28T09:23:09;19.40;99.90
6841;DHT22;3458;53.678;14.080;2023-07-28T09:25:36;19.30;99.90
6841;DHT22;3458;53.678;14.080;2023-07-28T09:28:03;19.20;99.90
6841;DHT22;3458;53.678;14.080;2023-07-28T09:30:44;19.10;99.90
6841;DHT22;3458;53.678;14.080;2023-07-28T09:33:10;19.00;99.90
6841;DHT22;3458;53.678;14.080;2023-07-28T09:35:49;18.90;99.90
6841;DHT22;3458;53.678;14.080;2023-07-28T09:38:15;18.90;99.90
6841;DHT22;3458;53.678;14.080;2023-07-28T09:40:42;18.90;99.90
6841;DHT22;3458;53.678;14.080;2023-07-28T09:43:08;18.90;99.90
6841;DHT22;3458;53.678;14.080;2023-07-28T09:45:34;19.10;99.90
6841;DHT22;3458;53.678;14.080;2023-07-28T09:48:02;19.20;99.90
6841;DHT22;3458;53.678;14.080;2023-07-28T09:50:29;19.40;99.90
6841;DHT22;3458;53.678;14.080;2023-07-28T09:52:58;19.50;99.90
6841;DHT22;3458;53.678;14.080;2023-07-28T09:55:26;19.60;99.90
6841;DHT22;3458;53.678;14.080;2023-07-28T09:57:54;19.70;99.90
6841;DHT22;3458;53.678;14.080;2023-07-28T10:00:21;19.70;99.90
6841;DHT22;3458;53.678;14.080;2023-07-28T10:02:48;19.60;99.90
6841;DHT22;3458;53.678;14.080;2023-07-28T10:05:14;19.50;99.90
6841;DHT22;3458;53.678;14.080;2023-07-28T10:07:42;19.50;99.90
6841;DHT22;3458;53.678;14.080;2023-07-28T10:10:13;19.40;99.90
6841;DHT22;3458;53.678;14.080;2023-07-28T10:12:58;19.40;99.90
6841;DHT22;3458;53.678;14.080;2023-07-28T10:15:30;19.40;99.90
6841;DHT22;3458;53.678;14.080;2023-07-28T10:17:57;19.60;99.90
6841;DHT22;3458;53.678;14.080;2023-07-28T10:20:35;19.70;99.90
6841;DHT22;3458;53.678;14.080;2023-07-28T10:25:32;20.00;99.90
6841;DHT22;3458;53.678;14.080;2023-07-28T10:27:58;20.20;99.90
6841;DHT22;3458;53.678;14.080;2023-07-28T10:30:24;20.30;99.90
6841;DHT22;3458;53.678;14.080;2023-07-28T10:32:50;20.50;99.90
6841;DHT22;3458;53.678;14.080;2023-07-28T10:37:44;20.70;99.90
6841;DHT22;3458;53.678;14.080;2023-07-28T10:40:35;20.70;99.90
6841;DHT22;3458;53.678;14.080;2023-07-28T10:43:03;20.70;99.90
6841;DHT22;3458;53.678;14.080;2023-07-28T10:45:30;20.80;99.90
6841;DHT22;3458;53.678;14.080;2023-07-28T10:47:57;20.80;99.90
6841;DHT22;3458;53.678;14.080;2023-07-28T10:50:27;20.80;99.90
6841;DHT22;3458;53.678;14.080;2023-07-28T10:52:53;20.60;99.90
6841;DHT22;3458;53.678;14.080;2023-07-28T10:55:20;20.50;99.90
6841;DHT22;3458;53.678;14.080;2023-07-28T10:57:47;20.30;99.90
6841;DHT22;3458;53.678;14.080;2023-07-28T11:00:17;20.30;99.90
6841;DHT22;3458;53.678;14.080;2023-07-28T11:05:20;20.30;99.90
6841;DHT22;3458;53.678;14.080;2023-07-28T11:07:45;20.40;99.90
6841;DHT22;3458;53.678;14.080;2023-07-28T11:10:12;20.60;99.90
6841;DHT22;3458;53.678;14.080;2023-07-28T11:12:42;20.80;99.90
6841;DHT22;3458;53.678;14.080;2023-07-28T11:15:09;20.90;99.90
6841;DHT22;3458;53.678;14.080;2023-07-28T11:17:43;20.80;99.90
6841;DHT22;3458;53.678;14.080;2023-07-28T11:20:16;20.60;99.90
6841;DHT22;3458;53.678;14.080;2023-07-28T11:22:43;20.50;99.90
6841;DHT22;3458;53.678;14.080;2023-07-28T11:25:09;20.30;99.90
6841;DHT22;3458;53.678;14.080;2023-07-28T11:27:38;20.10;99.90
6841;DHT22;3458;53.678;14.080;2023-07-28T11:30:05;20.10;99.90
6841;DHT22;3458;53.678;14.080;2023-07-28T11:32:34;20.10;99.90
6841;DHT22;3458;53.678;14.080;2023-07-28T11:35:09;20.30;99.90
6841;DHT22;3458;53.678;14.080;2023-07-28T11:37:36;20.50;99.90
6841;DHT22;3458;53.678;14.080;2023-07-28T11:40:03;20.50;99.90
6841;DHT22;3458;53.678;14.080;2023-07-28T11:42:34;20.50;99.90
6841;DHT22;3458;53.678;14.080;2023-07-28T11:45:01;20.50;99.90
6841;DHT22;3458;53.678;14.080;2023-07-28T11:47:27;20.60;99.90
6841;DHT22;3458;53.678;14.080;2023-07-28T11:49:52;20.70;99.90
6841;DHT22;3458;53.678;14.080;2023-07-28T11:52:19;20.90;99.90
6841;DHT22;3458;53.678;14.080;2023-07-28T11:54:45;21.10;99.90
6841;DHT22;3458;53.678;14.080;2023-07-28T11:57:10;21.30;99.90
6841;DHT22;3458;53.678;14.080;2023-07-28T11:59:36;21.40;99.90
6841;DHT22;3458;53.678;14.080;2023-07-28T12:02:03;21.40;99.90
6841;DHT22;3458;53.678;14.080;2023-07-28T12:04:37;21.50;99.90
6841;DHT22;3458;53.678;14.080;2023-07-28T12:07:12;21.50;99.90
6841;DHT22;3458;53.678;14.080;2023-07-28T12:12:17;21.70;99.90
6841;DHT22;3458;53.678;14.080;2023-07-28T12:14:43;21.90;99.90
6841;DHT22;3458;53.678;14.080;2023-07-28T12:17:17;21.80;99.90
6841;DHT22;3458;53.678;14.080;2023-07-28T12:20:03;21.60;99.90
6841;DHT22;3458;53.678;14.080;2023-07-28T12:22:36;21.40;99.90
6841;DHT22;3458;53.678;14.080;2023-07-28T12:25:02;21.10;99.90
6841;DHT22;3458;53.678;14.080;2023-07-28T12:27:29;21.00;99.90
6841;DHT22;3458;53.678;14.080;2023-07-28T12:29:55;20.90;99.90
6841;DHT22;3458;53.678;14.080;2023-07-28T12:32:21;20.90;99.90
6841;DHT22;3458;53.678;14.080;2023-07-28T12:34:47;20.90;99.90
6841;DHT22;3458;53.678;14.080;2023-07-28T12:37:13;21.30;99.90
6841;DHT22;3458;53.678;14.080;2023-07-28T12:39:39;22.00;99.90
6841;DHT22;3458;53.678;14.080;2023-07-28T12:42:08;22.90;99.90
6841;DHT22;3458;53.678;14.080;2023-07-28T12:44:34;23.90;99.90
6841;DHT22;3458;53.678;14.080;2023-07-28T12:47:00;24.80;99.90
6841;DHT22;3458;53.678;14.080;2023-07-28T12:49:26;25.00;99.90
6841;DHT22;3458;53.678;14.080;2023-07-28T12:51:53;24.60;99.90
6841;DHT22;3458;53.678;14.080;2023-07-28T12:54:19;24.10;99.90
6841;DHT22;3458;53.678;14.080;2023-07-28T12:56:44;23.60;99.90
6841;DHT22;3458;53.678;14.080;2023-07-28T12:59:11;23.10;99.90
6841;DHT22;3458;53.678;14.080;2023-07-28T13:01:37;22.70;99.90
6841;DHT22;3458;53.678;14.080;2023-07-28T13:04:03;22.40;99.90
6841;DHT22;3458;53.678;14.080;2023-07-28T13:06:28;22.10;99.90
6841;DHT22;3458;53.678;14.080;2023-07-28T13:08:54;21.80;99.90
6841;DHT22;3458;53.678;14.080;2023-07-28T13:11:19;21.70;99.90
6841;DHT22;3458;53.678;14.080;2023-07-28T13:13:45;21.50;99.90
6841;DHT22;3458;53.678;14.080;2023-07-28T13:16:10;21.40;99.90
6841;DHT22;3458;53.678;14.080;2023-07-28T13:18:36;21.40;99.90
6841;DHT22;3458;53.678;14.080;2023-07-28T13:21:02;21.50;99.90
6841;DHT22;3458;53.678;14.080;2023-07-28T13:23:27;21.70;99.90
6841;DHT22;3458;53.678;14.080;2023-07-28T13:25:53;21.80;99.90
6841;DHT22;3458;53.678;14.080;2023-07-28T13:28:18;21.80;99.90
6841;DHT22;3458;53.678;14.080;2023-07-28T13:30:44;21.90;99.90
6841;DHT22;3458;53.678;14.080;2023-07-28T13:33:09;22.10;99.90
6841;DHT22;3458;53.678;14.080;2023-07-28T13:35:35;22.40;99.90
6841;DHT22;3458;53.678;14.080;2023-07-28T13:38:00;23.30;99.90
6841;DHT22;3458;53.678;14.080;2023-07-28T13:40:26;24.30;99.90
6841;DHT22;3458;53.678;14.080;2023-07-28T13:42:51;25.30;99.90
6841;DHT22;3458;53.678;14.080;2023-07-28T13:45:17;26.30;99.90
6841;DHT22;3458;53.678;14.080;2023-07-28T13:47:42;26.90;99.90
6841;DHT22;3458;53.678;14.080;2023-07-28T13:50:08;27.20;99.90
6841;DHT22;3458;53.678;14.080;2023-07-28T13:52:33;27.60;99.90
6841;DHT22;3458;53.678;14.080;2023-07-28T13:54:59;28.30;99.90
6841;DHT22;3458;53.678;14.080;2023-07-28T13:57:24;28.90;98.50
6841;DHT22;3458;53.678;14.080;2023-07-28T13:59:50;29.30;94.40
6841;DHT22;3458;53.678;14.080;2023-07-28T14:02:18;29.70;89.90
6841;DHT22;3458;53.678;14.080;2023-07-28T14:04:44;30.00;85.80
6841;DHT22;3458;53.678;14.080;2023-07-28T14:07:10;30.30;82.20
6841;DHT22;3458;53.678;14.080;2023-07-28T14:09:35;30.40;76.30
6841;DHT22;3458;53.678;14.080;2023-07-28T14:12:02;30.60;73.20
6841;DHT22;3458;53.678;14.080;2023-07-28T14:14:28;31.20;71.60
6841;DHT22;3458;53.678;14.080;2023-07-28T14:16:53;31.60;67.20
6841;DHT22;3458;53.678;14.080;2023-07-28T14:19:19;31.50;63.70
6841;DHT22;3458;53.678;14.080;2023-07-28T14:21:44;31.90;62.60
6841;DHT22;3458;53.678;14.080;2023-07-28T14:24:10;32.30;60.70
6841;DHT22;3458;53.678;14.080;2023-07-28T14:26:36;32.70;58.70
6841;DHT22;3458;53.678;14.080;2023-07-28T14:29:02;32.90;57.90
6841;DHT22;3458;53.678;14.080;2023-07-28T14:31:27;33.20;58.50
6841;DHT22;3458;53.678;14.080;2023-07-28T14:33:53;33.50;56.30
6841;DHT22;3458;53.678;14.080;2023-07-28T14:36:18;33.70;54.70
6841;DHT22;3458;53.678;14.080;2023-07-28T14:38:44;34.00;53.10
6841;DHT22;3458;53.678;14.080;2023-07-28T14:41:09;34.00;51.40
6841;DHT22;3458;53.678;14.080;2023-07-28T14:43:35;34.00;51.50
6841;DHT22;3458;53.678;14.080;2023-07-28T14:46:00;33.90;51.20
6841;DHT22;3458;53.678;14.080;2023-07-28T14:48:26;33.90;50.80
6841;DHT22;3458;53.678;14.080;2023-07-28T14:50:51;34.00;49.90
6841;DHT22;3458;53.678;14.080;2023-07-28T14:53:33;34.30;49.30
6841;DHT22;3458;53.678;14.080;2023-07-28T14:55:59;34.50;47.90
6841;DHT22;3458;53.678;14.080;2023-07-28T14:58:25;34.60;48.60
6841;DHT22;3458;53.678;14.080;2023-07-28T15:00:51;34.90;47.30
6841;DHT22;3458;53.678;14.080;2023-07-28T15:03:16;35.00;46.50
6841;DHT22;3458;53.678;14.080;2023-07-28T15:05:42;35.10;46.20
6841;DHT22;3458;53.678;14.080;2023-07-28T15:08:08;35.20;44.50
6841;DHT22;3458;53.678;14.080;2023-07-28T15:10:33;34.70;44.90
6841;DHT22;3458;53.678;14.080;2023-07-28T15:12:59;32.90;46.30
6841;DHT22;3458;53.678;14.080;2023-07-28T15:15:24;31.30;49.30
6841;DHT22;3458;53.678;14.080;2023-07-28T15:17:50;29.90;51.60
6841;DHT22;3458;53.678;14.080;2023-07-28T15:20:15;28.90;54.20
6841;DHT22;3458;53.678;14.080;2023-07-28T15:22:45;28.10;57.20
6841;DHT22;3458;53.678;14.080;2023-07-28T15:25:12;29.10;57.80
6841;DHT22;3458;53.678;14.080;2023-07-28T15:27:37;30.50;55.90
6841;DHT22;3458;53.678;14.080;2023-07-28T15:30:03;31.60;51.70
6841;DHT22;3458;53.678;14.080;2023-07-28T15:32:30;32.20;49.80
6841;DHT22;3458;53.678;14.080;2023-07-28T15:34:55;32.70;48.80
6841;DHT22;3458;53.678;14.080;2023-07-28T15:37:21;33.00;48.10
6841;DHT22;3458;53.678;14.080;2023-07-28T15:39:46;33.40;47.80
6841;DHT22;3458;53.678;14.080;2023-07-28T15:42:12;33.80;46.90
6841;DHT22;3458;53.678;14.080;2023-07-28T15:44:38;34.10;45.70
6841;DHT22;3458;53.678;14.080;2023-07-28T15:47:03;34.10;45.30
6841;DHT22;3458;53.678;14.080;2023-07-28T15:49:29;34.20;45.80
6841;DHT22;3458;53.678;14.080;2023-07-28T15:51:54;34.40;45.50
6841;DHT22;3458;53.678;14.080;2023-07-28T15:54:20;34.40;44.90